createdAt,value
2019-05-30T00:01:01.906Z,5.92
2019-05-30T00:03:02.305Z,5.75
2019-05-30T00:05:27.494Z,8.10
2019-05-30T00:07:56.223Z,7.03
2019-05-30T00:10:51.222Z,8.13
2019-05-30T00:12:49.174Z,7.58
2019-05-30T00:15:16.584Z,7.40
2019-05-30T00:17:43.294Z,8.95
2019-05-30T00:20:06.713Z,7.40
2019-05-30T00:22:31.787Z,8.70
2019-05-30T00:25:28.030Z,7.80
2019-05-30T00:27:29.909Z,6.25
2019-05-30T00:30:24.655Z,6.42
2019-05-30T00:32:22.307Z,6.42
2019-05-30T00:34:47.962Z,4.97
2019-05-30T00:37:16.881Z,2.92
2019-05-30T00:39:51.964Z,3.47
2019-05-30T00:42:19.034Z,2.75
2019-05-30T00:45:20.808Z,3.52
2019-05-30T00:47:12.157Z,2.65
2019-05-30T00:49:37.789Z,2.87
2019-05-30T00:52:05.289Z,3.60
2019-05-30T00:54:32.119Z,3.35
2019-05-30T00:56:58.583Z,4.87
2019-05-30T00:59:52.893Z,3.80
2019-05-30T01:01:52.860Z,4.00
2019-05-30T01:04:19.121Z,3.60
2019-05-30T01:06:46.646Z,3.75
2019-05-30T01:09:40.916Z,3.60
2019-05-30T01:11:41.781Z,3.60
2019-05-30T01:14:07.356Z,3.00
2019-05-30T01:16:31.637Z,5.28
2019-05-30T01:18:59.032Z,3.08
2019-05-30T01:21:52.588Z,3.08
2019-05-30T01:24:21.073Z,4.15
2019-05-30T01:27:16.690Z,4.72
2019-05-30T01:28:59.332Z,2.67
2019-05-30T01:31:28.015Z,3.60
2019-05-30T01:33:57.477Z,2.87
2019-05-30T01:36:19.267Z,4.25
2019-05-30T01:38:47.022Z,4.25
2019-05-30T01:41:12.015Z,2.70
2019-05-30T01:43:40.188Z,3.40
2019-05-30T01:46:37.154Z,5.03
2019-05-30T01:49:06.790Z,3.85
2019-05-30T01:51:06.523Z,3.42
2019-05-30T01:53:31.269Z,4.05
2019-05-30T01:56:35.402Z,3.55
2019-05-30T01:58:37.977Z,4.25
2019-05-30T02:01:41.056Z,3.98
2019-05-30T02:03:40.961Z,4.62
2019-05-30T02:06:09.406Z,4.28
2019-05-30T02:08:34.824Z,4.40
2019-05-30T02:11:01.300Z,3.25
2019-05-30T02:13:27.652Z,4.75
2019-05-30T02:15:57.920Z,4.83
2019-05-30T02:18:24.465Z,3.80
2019-05-30T02:20:49.086Z,6.72
2019-05-30T02:23:25.172Z,3.85
2019-05-30T02:25:50.587Z,4.62
2019-05-30T02:28:18.141Z,4.53
2019-05-30T02:30:43.222Z,6.47
2019-05-30T02:33:37.532Z,6.08
2019-05-30T02:36:36.162Z,7.78
2019-05-30T02:41:03.322Z,6.55
2019-05-30T02:41:55.414Z,6.12
2019-05-30T02:43:53.513Z,6.45
2019-05-30T02:46:20.146Z,9.30
2019-05-30T02:48:58.701Z,6.67
2019-05-30T02:51:14.102Z,8.18
2019-05-30T02:53:40.202Z,11.43
2019-05-30T02:56:06.418Z,6.75
2019-05-30T02:58:32.112Z,6.53
2019-05-30T03:02:16.375Z,6.10
2019-05-30T03:04:10.934Z,9.18
2019-05-30T03:06:49.941Z,6.90
2019-05-30T03:08:54.644Z,6.28
2019-05-30T03:11:15.899Z,6.92
2019-05-30T03:13:46.192Z,7.87
2019-05-30T03:16:13.514Z,7.62
2019-05-30T03:18:39.241Z,8.15
2019-05-30T03:21:10.577Z,7.08
2019-05-30T03:24:31.592Z,5.65
2019-05-30T03:34:16.497Z,6.58
2019-05-30T03:37:00.029Z,9.68
2019-05-30T03:39:28.145Z,8.20
2019-05-30T03:42:26.768Z,8.93
2019-05-30T03:44:35.690Z,8.13
2019-05-30T03:47:15.543Z,7.12
2019-05-30T03:50:17.035Z,8.78
2019-05-30T03:52:14.525Z,9.43
2019-05-30T03:54:41.409Z,8.30
2019-05-30T03:57:21.534Z,8.05
2019-05-30T04:00:19.123Z,8.38
2019-05-30T04:03:08.958Z,8.23
2019-05-30T04:06:20.314Z,7.22
2019-05-30T04:07:26.057Z,8.83
2019-05-30T04:10:15.878Z,8.55
2019-05-30T04:38:25.253Z,10.08
2019-05-30T04:40:17.689Z,5.75
2019-05-30T04:41:25.621Z,8.15
2019-05-30T04:44:22.895Z,8.08
2019-05-30T04:46:22.553Z,6.87
2019-05-30T04:51:07.581Z,5.23
2019-05-30T04:54:05.478Z,5.33
2019-05-30T04:56:53.458Z,5.50
2019-05-30T04:58:02.301Z,5.87
2019-05-30T05:00:32.180Z,3.90
2019-05-30T05:02:55.368Z,3.33
2019-05-30T05:05:58.244Z,3.12
2019-05-30T05:07:55.085Z,3.10
2019-05-30T05:10:23.849Z,3.20
2019-05-30T05:13:20.441Z,3.50
2019-05-30T05:16:29.549Z,4.45
2019-05-30T05:17:50.110Z,2.95
2019-05-30T05:20:25.837Z,3.15
2019-05-30T05:22:55.002Z,3.37
2019-05-30T05:25:21.498Z,3.67
2019-05-30T05:27:50.261Z,5.83
2019-05-30T05:30:55.835Z,4.58
2019-05-30T05:32:59.805Z,4.70
2019-05-30T05:35:38.428Z,4.67
2019-05-30T05:38:05.202Z,5.12
2019-05-30T05:40:33.944Z,4.37
2019-05-30T05:43:18.877Z,4.53
2019-05-30T05:45:52.309Z,4.35
2019-05-30T05:49:00.780Z,4.20
2019-05-30T05:51:58.939Z,4.08
2019-05-30T05:53:58.754Z,4.03
2019-05-30T05:58:32.070Z,3.83
2019-05-30T05:59:25.629Z,4.50
2019-05-30T06:01:54.622Z,4.62
2019-05-30T06:04:12.824Z,3.65
2019-05-30T06:06:31.439Z,3.95
2019-05-30T06:08:57.469Z,3.50
2019-05-30T06:12:52.274Z,3.33
2019-05-30T06:13:55.602Z,3.15
2019-05-30T06:16:28.394Z,5.08
2019-05-30T06:18:46.902Z,4.15
2019-05-30T06:21:14.506Z,3.92
2019-05-30T06:24:06.901Z,4.53
2019-05-30T06:26:17.771Z,3.92
2019-05-30T06:29:24.293Z,4.30
2019-05-30T06:31:24.546Z,5.12
2019-05-30T06:33:52.182Z,4.00
2019-05-30T06:36:14.122Z,5.08
2019-05-30T06:38:39.820Z,6.33
2019-05-30T06:41:32.506Z,3.80
2019-05-30T06:43:57.792Z,4.58
2019-05-30T06:46:26.197Z,7.33
2019-05-30T06:49:01.830Z,5.25
2019-05-30T06:51:27.565Z,5.90
2019-05-30T06:57:06.007Z,5.42
2019-05-30T06:59:19.318Z,4.97
2019-05-30T07:02:10.651Z,3.60
2019-05-30T07:04:13.839Z,4.28
2019-05-30T07:07:06.470Z,5.72
2019-05-30T07:09:36.586Z,5.00
2019-05-30T07:12:15.069Z,3.85
2019-05-30T07:14:14.248Z,5.53
2019-05-30T07:16:43.777Z,5.50
2019-05-30T07:19:11.979Z,4.80
2019-05-30T07:21:39.554Z,4.92
2019-05-30T07:24:06.790Z,3.92
2019-05-30T07:26:36.785Z,5.28
2019-05-30T07:29:32.142Z,3.90
2019-05-30T07:31:34.374Z,7.03
2019-05-30T07:33:58.495Z,4.15
2019-05-30T07:36:26.331Z,4.67
2019-05-30T07:38:50.376Z,4.58
2019-05-30T07:41:18.199Z,4.10
2019-05-30T07:44:11.719Z,4.30
2019-05-30T07:46:09.960Z,4.25
2019-05-30T07:48:35.750Z,4.65
2019-05-30T07:51:11.671Z,3.52
2019-05-30T07:53:37.085Z,4.08
2019-05-30T07:56:11.625Z,4.28
2019-05-30T07:58:38.993Z,4.90
2019-05-30T08:01:09.272Z,7.45
2019-05-30T08:03:35.054Z,4.05
2019-05-30T08:06:02.180Z,3.50
2019-05-30T08:08:41.109Z,4.33
2019-05-30T08:11:17.783Z,3.83
2019-05-30T08:13:43.472Z,3.60
2019-05-30T08:16:10.528Z,4.55
2019-05-30T08:18:37.977Z,3.17
2019-05-30T08:21:02.311Z,4.10
2019-05-30T08:23:28.191Z,3.47
2019-05-30T08:25:54.719Z,3.65
2019-05-30T08:28:50.536Z,3.75
2019-05-30T08:30:56.803Z,3.83
2019-05-30T08:33:21.820Z,6.00
2019-05-30T08:35:52.922Z,4.90
2019-05-30T08:38:22.764Z,4.37
2019-05-30T08:41:26.052Z,8.78
2019-05-30T08:44:04.606Z,7.47
2019-05-30T08:46:30.140Z,5.25
2019-05-30T08:49:04.590Z,5.42
2019-05-30T08:51:32.287Z,4.75
2019-05-30T08:54:36.445Z,5.28
2019-05-30T08:56:36.734Z,4.40
2019-05-30T08:59:02.586Z,5.20
2019-05-30T09:01:42.152Z,4.45
2019-05-30T09:04:37.962Z,9.93
2019-05-30T09:06:34.148Z,4.45
2019-05-30T09:08:59.283Z,6.92
2019-05-30T09:12:06.350Z,4.58
2019-05-30T09:14:08.175Z,5.67
2019-05-30T09:16:35.737Z,5.45
2019-05-30T09:19:41.481Z,5.15
2019-05-30T09:22:09.700Z,5.90
2019-05-30T09:25:04.347Z,4.95
2019-05-30T09:27:03.484Z,4.30
2019-05-30T09:29:58.996Z,5.70
2019-05-30T09:31:59.091Z,4.65
2019-05-30T09:34:26.524Z,3.83
2019-05-30T09:36:52.478Z,5.53
2019-05-30T09:39:18.494Z,4.80
2019-05-30T09:41:56.561Z,4.28
2019-05-30T09:44:23.424Z,5.60
2019-05-30T09:47:17.351Z,8.28
2019-05-30T09:49:20.430Z,5.17
2019-05-30T09:51:46.914Z,5.70
2019-05-30T09:54:15.840Z,6.17
2019-05-30T09:56:42.060Z,6.92
2019-05-30T09:59:09.159Z,4.97
2019-05-30T10:03:01.984Z,5.95
2019-05-30T10:04:07.287Z,4.45
2019-05-30T10:07:01.337Z,5.60
2019-05-30T10:09:03.322Z,7.70
2019-05-30T10:11:28.703Z,5.20
2019-05-30T10:14:21.905Z,5.95
2019-05-30T10:16:21.519Z,5.62
2019-05-30T10:18:52.700Z,7.15
2019-05-30T10:21:20.286Z,5.60
2019-05-30T10:23:47.201Z,5.92
2019-05-30T10:26:42.029Z,5.55
2019-05-30T10:28:40.704Z,4.83
2019-05-30T10:31:05.924Z,3.75
2019-05-30T10:34:02.573Z,3.15
2019-05-30T10:36:00.429Z,3.77
2019-05-30T10:38:25.840Z,5.12
2019-05-30T10:40:52.575Z,5.95
2019-05-30T10:43:28.289Z,5.30
2019-05-30T10:45:57.494Z,4.28
2019-05-30T10:51:21.870Z,6.50
2019-05-30T10:52:16.512Z,6.03
2019-05-30T10:54:12.791Z,6.62
2019-05-30T10:56:38.029Z,4.12
2019-05-30T10:59:09.034Z,4.55
2019-05-30T11:01:37.030Z,3.58
2019-05-30T11:04:05.284Z,4.90
2019-05-30T11:06:39.999Z,2.85
2019-05-30T11:09:00.614Z,3.08
2019-05-30T11:11:29.186Z,3.80
2019-05-30T11:13:51.352Z,3.87
2019-05-30T11:16:48.883Z,3.87
2019-05-30T11:18:48.927Z,6.10
2019-05-30T11:21:13.274Z,3.37
2019-05-30T11:23:39.374Z,5.25
2019-05-30T11:26:05.800Z,4.90
2019-05-30T11:28:33.105Z,3.40
2019-05-30T11:31:04.130Z,5.87
2019-05-30T11:34:24.721Z,4.17
2019-05-30T11:36:06.056Z,3.60
2019-05-30T11:38:33.730Z,5.00
2019-05-30T11:41:26.112Z,4.35
2019-05-30T11:46:51.926Z,5.97
2019-05-30T11:47:43.950Z,5.80
2019-05-30T11:50:39.114Z,3.95
2019-05-30T11:52:14.601Z,4.28
2019-05-30T11:54:49.863Z,3.55
2019-05-30T12:00:11.878Z,4.35
2019-05-30T12:03:08.092Z,2.65
2019-05-30T12:05:08.114Z,3.67
2019-05-30T12:08:54.732Z,4.25
2019-05-30T12:10:59.384Z,3.40
2019-05-30T12:13:53.129Z,3.35
2019-05-30T12:15:53.463Z,4.37
2019-05-30T12:19:23.376Z,5.85
2019-05-30T12:21:01.872Z,4.28
2019-05-30T12:23:25.471Z,5.62
2019-05-30T12:25:53.911Z,3.10
2019-05-30T12:28:18.522Z,5.45
2019-05-30T12:30:55.815Z,5.42
2019-05-30T12:33:13.823Z,3.47
2019-05-30T12:36:20.582Z,4.03
2019-05-30T12:38:16.915Z,3.17
2019-05-30T12:40:43.347Z,3.37
2019-05-30T12:43:09.593Z,5.12
2019-05-30T12:45:36.627Z,5.20
2019-05-30T12:48:04.290Z,4.65
2019-05-30T12:50:59.345Z,3.27
2019-05-30T12:52:57.637Z,2.52
2019-05-30T12:55:26.323Z,4.80
2019-05-30T12:57:51.930Z,3.33
2019-05-30T13:00:30.586Z,5.35
2019-05-30T13:02:49.547Z,2.85
2019-05-30T13:05:14.665Z,3.92
2019-05-30T13:08:21.891Z,3.30
2019-05-30T13:10:19.168Z,3.15
2019-05-30T13:12:43.177Z,5.35
2019-05-30T13:15:19.992Z,4.30
2019-05-30T13:17:45.373Z,6.08
2019-05-30T13:20:11.370Z,2.77
2019-05-30T13:25:25.371Z,3.60
2019-05-30T13:27:53.386Z,3.30
2019-05-30T13:30:46.876Z,3.70
2019-05-30T13:32:46.096Z,4.03
2019-05-30T13:35:13.298Z,4.30
2019-05-30T13:38:07.283Z,4.00
2019-05-30T13:40:24.295Z,5.47
2019-05-30T13:42:42.888Z,2.98
2019-05-30T13:45:10.799Z,4.37
2019-05-30T13:47:34.834Z,3.65
2019-05-30T13:50:44.441Z,3.65
2019-05-30T13:52:50.874Z,3.37
2019-05-30T13:56:42.534Z,5.85
2019-05-30T13:58:17.560Z,4.67
2019-05-30T14:00:26.029Z,4.67
2019-05-30T14:05:14.511Z,3.27
2019-05-30T14:08:41.604Z,3.72
2019-05-30T14:10:31.975Z,5.45
2019-05-30T14:13:07.242Z,1.70
2019-05-30T14:15:35.048Z,3.10
2019-05-30T14:18:40.717Z,2.87
2019-05-30T14:20:42.442Z,1.80
2019-05-30T14:23:32.808Z,3.00
2019-05-30T14:28:04.177Z,2.77
2019-05-30T14:31:24.411Z,2.58
2019-05-30T14:33:36.489Z,2.37
2019-05-30T14:36:55.383Z,4.83
2019-05-30T14:38:59.175Z,4.78
2019-05-30T14:40:58.999Z,3.20
2019-05-30T14:44:25.974Z,2.58
2019-05-30T14:47:06.390Z,2.10
2019-05-30T14:48:38.793Z,4.85
2019-05-30T14:51:43.956Z,4.47
2019-05-30T14:54:42.125Z,4.55
2019-05-30T14:57:12.979Z,7.00
2019-05-30T14:58:43.852Z,3.40
2019-05-30T15:01:09.393Z,3.90
2019-05-30T15:04:42.190Z,3.62
2019-05-30T15:06:24.825Z,3.62
2019-05-30T15:08:50.147Z,2.58
2019-05-30T15:11:17.161Z,3.40
2019-05-30T15:13:43.894Z,4.42
2019-05-30T15:16:09.557Z,4.22
2019-05-30T15:18:46.134Z,3.87
2019-05-30T15:21:22.575Z,2.67
2019-05-30T15:23:48.346Z,1.85
2019-05-30T15:26:25.394Z,2.20
2019-05-30T15:29:01.786Z,1.65
2019-05-30T15:31:27.805Z,2.98
2019-05-30T15:33:57.885Z,2.17
2019-05-30T15:36:19.986Z,2.87
2019-05-30T15:38:46.267Z,4.65
2019-05-30T15:41:41.379Z,3.15
2019-05-30T15:43:41.691Z,5.42
2019-05-30T15:46:07.858Z,3.02
2019-05-30T15:48:36.162Z,4.45
2019-05-30T15:51:01.665Z,3.62
2019-05-30T15:54:01.040Z,4.25
2019-05-30T15:55:59.894Z,3.67
2019-05-30T15:58:58.229Z,2.30
2019-05-30T16:00:53.370Z,4.53
2019-05-30T16:03:49.858Z,3.02
2019-05-30T16:06:01.366Z,3.22
2019-05-30T16:08:23.143Z,4.85
2019-05-30T16:11:01.881Z,3.27
2019-05-30T16:13:32.265Z,5.17
2019-05-30T16:15:58.453Z,4.03
2019-05-30T16:18:26.049Z,4.67
2019-05-30T16:20:53.268Z,6.00
2019-05-30T16:23:49.705Z,4.90
2019-05-30T16:26:01.269Z,3.60
2019-05-30T16:28:28.991Z,4.60
2019-05-30T16:31:22.295Z,3.90
2019-05-30T16:33:20.038Z,8.53
2019-05-30T16:36:28.222Z,5.17
2019-05-30T16:38:30.708Z,4.28
2019-05-30T16:41:22.623Z,3.95
2019-05-30T16:44:07.000Z,3.20
2019-05-30T16:45:52.110Z,2.47
2019-05-30T16:48:18.293Z,6.15
2019-05-30T16:51:44.692Z,3.58
2019-05-30T16:53:25.985Z,3.40
2019-05-30T16:55:53.810Z,5.85
2019-05-30T16:58:20.337Z,6.33
2019-05-30T17:01:15.750Z,5.92
2019-05-30T17:04:12.243Z,2.92
2019-05-30T17:06:13.084Z,4.05
2019-05-30T17:08:24.304Z,4.03
2019-05-30T17:10:47.900Z,3.08
2019-05-30T17:13:15.682Z,3.75
2019-05-30T17:15:45.867Z,3.65
2019-05-30T17:18:12.129Z,3.62
2019-05-30T17:20:38.149Z,3.37
2019-05-30T17:23:05.528Z,3.25
2019-05-30T17:25:40.915Z,3.85
2019-05-30T17:28:09.378Z,3.27
2019-05-30T17:30:36.425Z,3.37
2019-05-30T17:33:10.525Z,4.12
2019-05-30T17:35:37.057Z,5.35
2019-05-30T17:38:04.614Z,4.28
2019-05-30T17:40:44.989Z,3.15
2019-05-30T17:43:07.873Z,5.47
2019-05-30T17:46:00.058Z,3.60
2019-05-30T17:48:23.863Z,3.85
2019-05-30T17:50:51.132Z,2.72
2019-05-30T17:53:19.737Z,4.78
2019-05-30T17:56:18.308Z,2.55
2019-05-30T17:58:13.618Z,3.55
2019-05-30T18:01:08.055Z,3.95
2019-05-30T18:03:40.886Z,3.50
2019-05-30T18:05:41.211Z,3.72
2019-05-30T18:08:08.705Z,3.17
2019-05-30T18:10:35.597Z,2.92
2019-05-30T18:14:17.315Z,4.53
2019-05-30T18:16:07.897Z,3.10
2019-05-30T18:18:31.770Z,4.60
2019-05-30T18:20:48.316Z,3.00
2019-05-30T18:23:37.451Z,4.75
2019-05-30T18:26:18.459Z,3.52
2019-05-30T18:28:28.103Z,2.83
2019-05-30T18:31:21.903Z,4.83
2019-05-30T18:33:19.975Z,3.85
2019-05-30T18:35:46.149Z,3.60
2019-05-30T18:38:11.661Z,3.35
2019-05-30T18:42:25.433Z,4.35
2019-05-30T18:44:22.742Z,2.80
2019-05-30T18:47:16.679Z,5.67
2019-05-30T18:49:44.417Z,2.50
2019-05-30T18:51:43.738Z,2.65
2019-05-30T18:54:42.910Z,3.25
2019-05-30T18:56:42.357Z,4.22
2019-05-30T18:59:09.477Z,3.25
2019-05-30T19:01:37.936Z,3.20
2019-05-30T19:04:06.160Z,3.10
2019-05-30T19:08:00.250Z,4.10
2019-05-30T19:09:37.454Z,4.45
2019-05-30T19:11:35.334Z,4.03
2019-05-30T19:14:07.719Z,2.90
2019-05-30T19:16:36.690Z,4.83
2019-05-30T19:19:05.809Z,3.27
2019-05-30T19:21:59.502Z,3.65
2019-05-30T19:23:57.776Z,6.58
2019-05-30T19:26:24.458Z,4.25
2019-05-30T19:28:49.289Z,4.00
2019-05-30T19:31:15.834Z,3.02
2019-05-30T19:34:10.909Z,2.50
2019-05-30T19:36:10.177Z,2.77
2019-05-30T19:39:14.793Z,2.67
2019-05-30T19:41:23.742Z,3.20
2019-05-30T19:43:49.370Z,3.12
2019-05-30T19:46:15.349Z,3.12
2019-05-30T19:49:47.828Z,2.98
2019-05-30T19:51:21.833Z,2.95
2019-05-30T19:53:48.513Z,3.75
2019-05-30T19:56:33.350Z,3.27
2019-05-30T20:01:13.837Z,4.67
2019-05-30T20:03:46.637Z,5.60
2019-05-30T20:06:36.674Z,3.87
2019-05-30T20:08:53.462Z,3.70
2019-05-30T20:11:37.190Z,5.10
2019-05-30T20:16:57.228Z,4.42
2019-05-30T20:17:54.206Z,5.40
2019-05-30T20:19:58.763Z,4.12
2019-05-30T20:22:54.165Z,3.98
2019-05-30T20:24:53.631Z,5.50
2019-05-30T20:27:20.929Z,4.10
2019-05-30T20:30:14.489Z,3.62
2019-05-30T20:32:51.286Z,4.47
2019-05-30T20:35:27.693Z,3.42
2019-05-30T20:37:54.016Z,3.52
2019-05-30T20:40:22.713Z,3.77
2019-05-30T20:42:45.826Z,5.20
2019-05-30T20:45:12.477Z,3.92
2019-05-30T20:47:40.237Z,4.55
2019-05-30T20:50:09.908Z,3.58
2019-05-30T20:52:38.269Z,4.20
2019-05-30T20:55:01.500Z,5.03
2019-05-30T20:57:28.606Z,4.53
2019-05-30T20:59:55.635Z,7.03
2019-05-30T21:02:39.066Z,6.28
2019-05-30T21:04:50.934Z,5.33
2019-05-30T21:07:57.040Z,6.03
2019-05-30T21:09:54.898Z,5.92
2019-05-30T21:12:37.685Z,4.72
2019-05-30T21:17:46.775Z,4.10
2019-05-30T21:18:39.706Z,4.30
2019-05-30T21:21:10.195Z,4.10
2019-05-30T21:23:09.354Z,4.78
2019-05-30T21:26:03.245Z,4.30
2019-05-30T21:28:13.907Z,3.00
2019-05-30T21:31:12.518Z,3.33
2019-05-30T21:33:09.580Z,3.40
2019-05-30T21:35:35.074Z,3.40
2019-05-30T21:38:00.964Z,3.60
2019-05-30T21:40:28.673Z,4.90
2019-05-30T21:43:09.915Z,3.50
2019-05-30T21:45:51.050Z,3.12
2019-05-30T21:47:50.518Z,5.20
2019-05-30T21:53:10.512Z,3.98
2019-05-30T21:54:03.589Z,4.15
2019-05-30T21:56:01.983Z,4.40
2019-05-30T21:58:27.085Z,2.85
2019-05-30T22:01:18.800Z,3.77
2019-05-30T22:03:31.254Z,2.72
2019-05-30T22:06:26.004Z,3.55
2019-05-30T22:08:27.702Z,3.92
2019-05-30T22:10:53.881Z,3.95
2019-05-30T22:13:19.924Z,4.95
2019-05-30T22:17:12.099Z,3.45
2019-05-30T22:18:18.298Z,2.67
2019-05-30T22:20:43.805Z,3.60
2019-05-30T22:26:01.113Z,5.05
2019-05-30T22:28:25.344Z,2.95
2019-05-30T22:31:20.047Z,3.83
2019-05-30T22:33:48.750Z,2.98
2019-05-30T22:35:47.207Z,2.80
2019-05-30T22:38:12.911Z,3.72
2019-05-30T22:40:39.845Z,3.65
2019-05-30T22:43:07.894Z,4.58
2019-05-30T22:46:02.689Z,3.50
2019-05-30T22:48:03.793Z,4.00
2019-05-30T22:50:28.399Z,4.12
2019-05-30T22:52:54.306Z,3.02
2019-05-30T22:55:54.318Z,4.40
2019-05-30T22:57:52.600Z,4.70
2019-05-30T23:00:19.187Z,3.60
2019-05-30T23:05:28.666Z,3.42
2019-05-30T23:07:55.565Z,4.22
2019-05-30T23:10:22.273Z,4.10
2019-05-30T23:12:48.124Z,3.60
2019-05-30T23:15:14.157Z,4.50
2019-05-30T23:17:40.523Z,2.90
2019-05-30T23:20:38.882Z,3.27
2019-05-30T23:22:41.385Z,3.20
2019-05-30T23:25:39.914Z,5.03
2019-05-30T23:27:36.594Z,3.85
2019-05-30T23:30:03.623Z,3.80
2019-05-30T23:32:28.172Z,4.83
2019-05-30T23:34:58.618Z,3.40
2019-05-30T23:37:52.967Z,3.37
2019-05-30T23:39:55.366Z,5.20
2019-05-30T23:42:48.951Z,5.87
2019-05-30T23:44:57.920Z,6.47
2019-05-30T23:47:51.631Z,6.08
2019-05-30T23:49:51.734Z,4.03
2019-05-30T23:52:26.044Z,4.75
2019-05-30T23:55:48.513Z,4.97
2019-05-30T23:57:50.329Z,4.97
2019-05-30T23:59:50.534Z,3.52
